| time (UTC) | temp F | wind direction | speed MPH | gust MPH | rain 1hr in | rain 24hr in | rain mn in | humidity % | barometer mb |
| 20260510020505 | 80 | 152 | 2.0 | 6.0 | 0.00 | 0.00 | 0.00 | 61 | 1027.9 |
| 20260510014504 | 77 | 194 | 3.0 | 7.0 | 0.00 | 0.00 | 0.00 | 65 | 1028.3 |
| 20260510014004 | 77 | 148 | 2.0 | 7.0 | 0.00 | 0.00 | 0.00 | 66 | 1028.3 |
| 20260510013005 | 76 | 128 | 2.0 | 7.0 | 0.00 | 0.00 | 0.00 | 65 | 1028.5 |
| 20260510012004 | 76 | 154 | 3.0 | 7.0 | 0.00 | 0.00 | 0.00 | 67 | 1028.9 |
| 20260510011504 | 75 | 221 | 2.0 | 5.0 | 0.00 | 0.00 | 0.00 | 67 | 1028.8 |
| 20260510005002 | 74 | 172 | 0.0 | 3.0 | 0.00 | 0.00 | 0.00 | 68 | 1028.9 |
| 20260510004003 | 75 | 198 | 1.0 | 2.0 | 0.00 | 0.00 | 0.00 | 67 | 1028.9 |
| 20260510003004 | 76 | 26 | 1.0 | 3.0 | 0.00 | 0.00 | 0.00 | 66 | 1029.1 |
| 20260510002502 | 76 | 354 | 1.0 | 3.0 | 0.00 | 0.00 | 0.00 | 64 | 1029.3 |
| 20260510002004 | 76 | 200 | 1.0 | 6.0 | 0.00 | 0.00 | 0.00 | 65 | 1029.3 |
| 20260510001503 | 76 | 321 | 1.0 | 6.0 | 0.00 | 0.00 | 0.00 | 66 | 1029.2 |
| 20260509235503 | 75 | 199 | 0.0 | 2.0 | 0.00 | 0.00 | 0.00 | 67 | 1029.2 |
| 20260509235004 | 74 | 201 | 1.0 | 2.0 | 0.00 | 0.00 | 0.00 | 68 | 1029.3 |
| 20260509234504 | 74 | 41 | 1.0 | 3.0 | 0.00 | 0.00 | 0.00 | 69 | 1029.3 |
| 20260509232004 | 72 | 239 | 1.0 | 3.0 | 0.00 | 0.00 | 0.00 | 70 | 1029.0 |
| 20260509231503 | 72 | 251 | 1.0 | 2.0 | 0.00 | 0.00 | 0.00 | 71 | 1028.9 |
| 20260509231003 | 71 | 243 | 0.0 | 2.0 | 0.00 | 0.00 | 0.00 | 71 | 1028.9 |
| 20260509230503 | 71 | 254 | 1.0 | 2.0 | 0.00 | 0.00 | 0.00 | 73 | 1028.9 |
| 20260509230004 | 70 | 59 | 0.0 | 3.0 | 0.00 | 0.00 | 0.00 | 73 | 1028.9 |
| 20260509225503 | 70 | 313 | 0.0 | 3.0 | 0.00 | 0.00 | 0.00 | 73 | 1028.9 |
| 20260509225005 | 69 | 237 | 1.0 | 2.0 | 0.00 | 0.00 | 0.00 | 76 | 1028.8 |
| 20260509222504 | 65 | 6 | 0.0 | 2.0 | 0.00 | 0.00 | 0.00 | 80 | 1028.5 |
| 20260509222004 | 64 | 317 | 0.0 | 1.0 | 0.00 | 0.00 | 0.00 | 82 | 1028.5 |
| 20260509221503 | 63 | 148 | 0.0 | 1.0 | 0.00 | 0.00 | 0.00 | 82 | 1028.7 |
| 20260509221004 | 62 | 59 | 0.0 | 1.0 | 0.00 | 0.00 | 0.00 | 83 | 1028.8 |
| 20260509220503 | 61 | 64 | 0.0 | 2.0 | 0.00 | 0.00 | 0.00 | 83 | 1028.9 |
| 20260509215004 | 59 | 10 | 0.0 | 2.0 | 0.00 | 0.00 | 0.00 | 85 | 1028.9 |
| 20260509212504 | 57 | 131 | 0.0 | 2.0 | 0.00 | 0.00 | 0.00 | 90 | 1028.4 |
| 20260509212004 | 56 | 131 | 0.0 | 2.0 | 0.00 | 0.00 | 0.00 | 90 | 1028.3 |
| 20260509211003 | 53 | 131 | 0.0 | 2.0 | 0.00 | 0.00 | 0.00 | 94 | 1028.0 |
| 20260509210003 | 52 | 169 | 0.0 | 0.0 | 0.00 | 0.00 | 0.00 | 97 | 1028.0 |
| 20260509205503 | 51 | 184 | 0.0 | 0.0 | 0.00 | 0.00 | 0.00 | 97 | 1027.9 |
| 20260509204004 | 51 | 184 | 0.0 | 0.0 | 0.00 | 0.00 | 0.00 | 95 | 1027.9 |
| 20260509202503 | 51 | 184 | 0.0 | 0.0 | 0.00 | 0.00 | 0.00 | 93 | 1027.6 |
| 20260509202004 | 51 | 184 | 0.0 | 0.0 | 0.00 | 0.00 | 0.00 | 93 | 1027.6 |
| 20260509195504 | 52 | 183 | 0.0 | 0.0 | 0.00 | 0.00 | 0.00 | 93 | 1027.5 |
| 20260509193504 | 53 | 183 | 0.0 | 0.0 | 0.00 | 0.00 | 0.00 | 91 | 1027.4 |
| 20260509191504 | 53 | 183 | 0.0 | 0.0 | 0.00 | 0.00 | 0.00 | 91 | 1027.1 |
| 20260509191003 | 54 | 183 | 0.0 | 0.0 | 0.00 | 0.00 | 0.00 | 91 | 1027.1 |
| 20260509190504 | 54 | 203 | 0.0 | 0.0 | 0.00 | 0.00 | 0.00 | 91 | 1027.1 |
| 20260509190004 | 54 | 209 | 0.0 | 0.0 | 0.00 | 0.00 | 0.00 | 92 | 1026.9 |
| 20260509185503 | 53 | 214 | 0.0 | 0.0 | 0.00 | 0.00 | 0.00 | 92 | 1026.9 |
| 20260509185004 | 53 | 224 | 0.0 | 0.0 | 0.00 | 0.00 | 0.00 | 92 | 1026.9 |
| 20260509184503 | 53 | 224 | 0.0 | 0.0 | 0.00 | 0.00 | 0.00 | 92 | 1026.9 |
| 20260509183004 | 52 | 224 | 0.0 | 0.0 | 0.00 | 0.00 | 0.00 | 94 | 1026.9 |
| 20260509181504 | 52 | 224 | 0.0 | 0.0 | 0.00 | 0.00 | 0.00 | 93 | 1026.8 |
| 20260509181004 | 52 | 224 | 0.0 | 0.0 | 0.00 | 0.00 | 0.00 | 94 | 1026.8 |
| 20260509180505 | 52 | 224 | 0.0 | 0.0 | 0.00 | 0.00 | 0.00 | 92 | 1026.8 |
| 20260509180004 | 52 | 217 | 0.0 | 0.0 | 0.00 | 0.00 | 0.00 | 92 | 1026.8 |
| 20260509175003 | 52 | 217 | 0.0 | 0.0 | 0.00 | 0.00 | 0.00 | 92 | 1026.8 |
| 20260509174504 | 52 | 217 | 0.0 | 0.0 | 0.00 | 0.00 | 0.00 | 92 | 1026.7 |
| 20260509174003 | 52 | 217 | 0.0 | 0.0 | 0.00 | 0.00 | 0.00 | 91 | 1026.8 |
| 20260509173504 | 52 | 217 | 0.0 | 0.0 | 0.00 | 0.00 | 0.00 | 91 | 1026.7 |
| 20260509171505 | 52 | 217 | 0.0 | 0.0 | 0.00 | 0.00 | 0.00 | 90 | 1026.3 |
| 20260509171004 | 53 | 217 | 0.0 | 0.0 | 0.00 | 0.00 | 0.00 | 90 | 1026.4 |
| 20260509170004 | 53 | 255 | 0.0 | 0.0 | 0.00 | 0.00 | 0.00 | 89 | 1026.4 |
| 20260509165004 | 53 | 255 | 0.0 | 0.0 | 0.00 | 0.00 | 0.00 | 88 | 1026.3 |
| 20260509164503 | 54 | 255 | 0.0 | 0.0 | 0.00 | 0.00 | 0.00 | 88 | 1026.3 |
| 20260509163504 | 54 | 255 | 0.0 | 0.0 | 0.00 | 0.00 | 0.00 | 88 | 1026.4 |
| 20260509163004 | 54 | 253 | 0.0 | 0.0 | 0.00 | 0.00 | 0.00 | 87 | 1026.4 |
| 20260509161504 | 54 | 226 | 0.0 | 0.0 | 0.00 | 0.00 | 0.00 | 87 | 1026.5 |
| 20260509160504 | 54 | 226 | 0.0 | 0.0 | 0.00 | 0.00 | 0.00 | 88 | 1026.6 |
| 20260509154003 | 54 | 229 | 0.0 | 0.0 | 0.00 | 0.00 | 0.00 | 87 | 1026.7 |
| 20260509153504 | 54 | 229 | 0.0 | 0.0 | 0.00 | 0.00 | 0.00 | 87 | 1026.7 |
| 20260509152004 | 55 | 161 | 0.0 | 0.0 | 0.00 | 0.00 | 0.00 | 86 | 1026.8 |
| 20260509151503 | 55 | 161 | 0.0 | 0.0 | 0.00 | 0.00 | 0.00 | 85 | 1026.8 |
| 20260509150504 | 55 | 161 | 0.0 | 0.0 | 0.00 | 0.00 | 0.00 | 85 | 1026.8 |
| 20260509150004 | 56 | 161 | 0.0 | 0.0 | 0.00 | 0.00 | 0.00 | 84 | 1026.8 |
| 20260509145504 | 56 | 161 | 0.0 | 0.0 | 0.00 | 0.00 | 0.00 | 84 | 1026.8 |
| 20260509143004 | 55 | 193 | 0.0 | 0.0 | 0.00 | 0.00 | 0.00 | 85 | 1026.9 |
| 20260509142003 | 55 | 193 | 0.0 | 0.0 | 0.00 | 0.00 | 0.00 | 86 | 1026.9 |
| 20260509141004 | 55 | 193 | 0.0 | 0.0 | 0.00 | 0.00 | 0.00 | 87 | 1026.9 |
| 20260509140503 | 55 | 193 | 0.0 | 0.0 | 0.00 | 0.00 | 0.00 | 87 | 1026.9 |
| 20260509135504 | 55 | 199 | 0.0 | 0.0 | 0.00 | 0.00 | 0.00 | 88 | 1027.0 |
| 20260509135005 | 55 | 199 | 0.0 | 0.0 | 0.00 | 0.00 | 0.00 | 87 | 1027.0 |
| 20260509132504 | 56 | 162 | 2.0 | 6.0 | 0.00 | 0.00 | 0.00 | 84 | 1027.1 |
| 20260509131504 | 56 | 249 | 0.0 | 0.0 | 0.00 | 0.00 | 0.00 | 83 | 1026.8 |
| 20260509130504 | 57 | 249 | 0.0 | 0.0 | 0.00 | 0.00 | 0.00 | 82 | 1026.9 |
| 20260509130004 | 58 | 249 | 0.0 | 0.0 | 0.00 | 0.00 | 0.00 | 81 | 1026.8 |
| 20260509125503 | 58 | 249 | 0.0 | 0.0 | 0.00 | 0.00 | 0.00 | 80 | 1026.8 |
| 20260509124004 | 58 | 249 | 0.0 | 0.0 | 0.00 | 0.00 | 0.00 | 80 | 1027.1 |
| 20260509123004 | 58 | 249 | 0.0 | 0.0 | 0.00 | 0.00 | 0.00 | 80 | 1027.1 |
| 20260509121004 | 59 | 249 | 0.0 | 0.0 | 0.00 | 0.00 | 0.00 | 78 | 1027.1 |
| 20260509120004 | 59 | 249 | 0.0 | 0.0 | 0.00 | 0.00 | 0.00 | 79 | 1027.0 |
| 20260509114004 | 60 | 249 | 0.0 | 0.0 | 0.00 | 0.00 | 0.00 | 77 | 1027.2 |
| 20260509113004 | 60 | 249 | 0.0 | 0.0 | 0.00 | 0.00 | 0.00 | 76 | 1027.2 |
| 20260509112505 | 61 | 249 | 0.0 | 0.0 | 0.00 | 0.00 | 0.00 | 76 | 1027.2 |
| 20260509112004 | 61 | 249 | 0.0 | 0.0 | 0.00 | 0.00 | 0.00 | 75 | 1027.2 |
| 20260509110505 | 61 | 249 | 0.0 | 0.0 | 0.00 | 0.00 | 0.00 | 75 | 1027.1 |
| 20260509110004 | 61 | 249 | 0.0 | 0.0 | 0.00 | 0.00 | 0.00 | 75 | 1027.2 |
| 20260509103005 | 62 | 249 | 0.0 | 0.0 | 0.00 | 0.00 | 0.00 | 73 | 1027.0 |
| 20260509102504 | 62 | 249 | 0.0 | 0.0 | 0.00 | 0.00 | 0.00 | 73 | 1027.0 |
| 20260509101005 | 63 | 249 | 0.0 | 0.0 | 0.00 | 0.00 | 0.00 | 73 | 1027.0 |
| 20260509094004 | 63 | 249 | 0.0 | 0.0 | 0.00 | 0.00 | 0.00 | 72 | 1026.8 |
| 20260509093005 | 63 | 245 | 0.0 | 0.0 | 0.00 | 0.00 | 0.00 | 72 | 1026.5 |
| 20260509092504 | 63 | 243 | 0.0 | 0.0 | 0.00 | 0.00 | 0.00 | 72 | 1026.5 |
| 20260509091505 | 63 | 243 | 0.0 | 0.0 | 0.00 | 0.00 | 0.00 | 71 | 1026.5 |
| 20260509091005 | 64 | 243 | 0.0 | 0.0 | 0.00 | 0.00 | 0.00 | 71 | 1026.4 |
| 20260509090503 | 64 | 174 | 0.0 | 0.0 | 0.00 | 0.00 | 0.00 | 71 | 1026.4 |
| 20260509090005 | 65 | 173 | 0.0 | 0.0 | 0.00 | 0.00 | 0.00 | 71 | 1026.4 |
| 20260509084504 | 65 | 153 | 0.0 | 0.0 | 0.00 | 0.00 | 0.00 | 69 | 1026.0 |
| 20260509083504 | 65 | 163 | 0.0 | 0.0 | 0.00 | 0.00 | 0.00 | 67 | 1025.9 |
| 20260509083004 | 66 | 178 | 0.0 | 0.0 | 0.00 | 0.00 | 0.00 | 67 | 1025.9 |
| 20260509082506 | 66 | 178 | 0.0 | 0.0 | 0.00 | 0.00 | 0.00 | 66 | 1025.9 |
| 20260509082004 | 66 | 200 | 0.0 | 0.0 | 0.00 | 0.00 | 0.00 | 65 | 1025.8 |
| 20260509081504 | 67 | 200 | 0.0 | 0.0 | 0.00 | 0.00 | 0.00 | 65 | 1025.8 |
| 20260509080504 | 67 | 166 | 0.0 | 0.0 | 0.00 | 0.00 | 0.00 | 64 | 1025.6 |
| 20260509080005 | 67 | 141 | 0.0 | 0.0 | 0.00 | 0.00 | 0.00 | 63 | 1025.5 |
| 20260509075504 | 68 | 185 | 0.0 | 0.0 | 0.00 | 0.00 | 0.00 | 63 | 1025.4 |
| 20260509075004 | 68 | 191 | 0.0 | 0.0 | 0.00 | 0.00 | 0.00 | 62 | 1025.4 |
| 20260509074005 | 69 | 159 | 0.0 | 0.0 | 0.00 | 0.00 | 0.00 | 61 | 1025.3 |
| 20260509073504 | 69 | 109 | 0.0 | 0.0 | 0.00 | 0.00 | 0.00 | 60 | 1025.3 |
| 20260509073004 | 69 | 115 | 0.0 | 2.0 | 0.00 | 0.00 | 0.00 | 60 | 1025.3 |
| 20260509072505 | 70 | 110 | 0.0 | 2.0 | 0.00 | 0.00 | 0.00 | 59 | 1025.3 |
| 20260509071504 | 70 | 112 | 1.0 | 3.0 | 0.00 | 0.00 | 0.00 | 58 | 1025.1 |
| 20260509071004 | 71 | 131 | 1.0 | 2.0 | 0.00 | 0.00 | 0.00 | 58 | 1025.1 |
| 20260509065505 | 72 | 115 | 1.0 | 3.0 | 0.00 | 0.00 | 0.00 | 55 | 1024.8 |
| 20260509064504 | 73 | 114 | 1.0 | 5.0 | 0.00 | 0.00 | 0.00 | 54 | 1024.8 |
| 20260509064004 | 74 | 108 | 2.0 | 5.0 | 0.00 | 0.00 | 0.00 | 53 | 1024.7 |
| 20260509063505 | 74 | 114 | 3.0 | 3.0 | 0.00 | 0.00 | 0.00 | 51 | 1024.7 |
| 20260509062004 | 75 | 132 | 2.0 | 5.0 | 0.00 | 0.00 | 0.00 | 51 | 1024.5 |
| 20260509061504 | 75 | 101 | 1.0 | 6.0 | 0.00 | 0.00 | 0.00 | 50 | 1024.4 |
| 20260509061004 | 75 | 154 | 3.0 | 6.0 | 0.00 | 0.00 | 0.00 | 48 | 1024.4 |
| 20260509055504 | 74 | 92 | 2.0 | 6.0 | 0.00 | 0.00 | 0.00 | 49 | 1024.3 |
| 20260509051505 | 76 | 56 | 2.0 | 5.0 | 0.00 | 0.00 | 0.00 | 49 | 1024.2 |
| 20260509051004 | 77 | 85 | 2.0 | 5.0 | 0.00 | 0.00 | 0.00 | 48 | 1024.2 |
| 20260509050505 | 77 | 88 | 2.0 | 6.0 | 0.00 | 0.00 | 0.00 | 47 | 1024.2 |
| 20260509045504 | 77 | 223 | 2.0 | 3.0 | 0.00 | 0.00 | 0.00 | 49 | 1024.2 |
| 20260509043504 | 76 | 85 | 3.0 | 5.0 | 0.00 | 0.00 | 0.00 | 50 | 1024.2 |
| 20260509043005 | 76 | 148 | 2.0 | 3.0 | 0.00 | 0.00 | 0.00 | 50 | 1024.2 |
| 20260509042504 | 77 | 83 | 2.0 | 3.0 | 0.00 | 0.00 | 0.00 | 50 | 1024.2 |
| 20260509042005 | 78 | 140 | 2.0 | 3.0 | 0.00 | 0.00 | 0.00 | 49 | 1024.2 |
| 20260509041006 | 77 | 124 | 1.0 | 3.0 | 0.00 | 0.00 | 0.00 | 50 | 1024.2 |
| 20260509040504 | 77 | 186 | 2.0 | 5.0 | 0.00 | 0.00 | 0.00 | 52 | 1024.2 |
| 20260509034005 | 77 | 154 | 2.0 | 5.0 | 0.00 | 0.00 | 0.00 | 50 | 1024.2 |
| 20260509033505 | 77 | 188 | 1.0 | 7.0 | 0.00 | 0.00 | 0.00 | 51 | 1024.2 |
| 20260509033005 | 77 | 174 | 4.0 | 7.0 | 0.00 | 0.00 | 0.00 | 51 | 1024.2 |
| 20260509032504 | 77 | 218 | 2.0 | 6.0 | 0.00 | 0.00 | 0.00 | 51 | 1024.2 |
| 20260509031004 | 76 | 168 | 3.0 | 5.0 | 0.00 | 0.00 | 0.00 | 52 | 1024.3 |
| 20260509030504 | 75 | 79 | 2.0 | 12.0 | 0.00 | 0.00 | 0.00 | 52 | 1024.3 |
| 20260509030004 | 75 | 84 | 3.0 | 12.0 | 0.00 | 0.00 | 0.00 | 53 | 1024.4 |
| 20260509025005 | 75 | 54 | 2.0 | 12.0 | 0.00 | 0.00 | 0.00 | 54 | 1024.7 |
| 20260509024005 | 76 | 127 | 2.0 | 9.0 | 0.00 | 0.00 | 0.00 | 52 | 1024.7 |
| 20260509022505 | 76 | 128 | 2.0 | 5.0 | 0.00 | 0.00 | 0.00 | 51 | 1024.9 |